sensor_id;sensor_type;location;lat;lon;timestamp;temperature;humidity
40151;DHT22;25866;52.420;10.640;2023-04-07T00:00:27;5.60;98.00
40151;DHT22;25866;52.420;10.640;2023-04-07T00:02:53;5.60;98.10
40151;DHT22;25866;52.420;10.640;2023-04-07T00:05:19;5.60;98.10
40151;DHT22;25866;52.420;10.640;2023-04-07T00:07:44;5.60;98.20
40151;DHT22;25866;52.420;10.640;2023-04-07T00:10:10;5.60;98.10
40151;DHT22;25866;52.420;10.640;2023-04-07T00:12:36;5.60;98.00
40151;DHT22;25866;52.420;10.640;2023-04-07T00:15:02;5.60;97.80
40151;DHT22;25866;52.420;10.640;2023-04-07T00:17:28;5.50;98.00
40151;DHT22;25866;52.420;10.640;2023-04-07T00:19:53;5.50;98.10
40151;DHT22;25866;52.420;10.640;2023-04-07T00:22:19;5.50;97.90
40151;DHT22;25866;52.420;10.640;2023-04-07T00:24:44;5.50;98.00
40151;DHT22;25866;52.420;10.640;2023-04-07T00:27:10;5.50;97.90
40151;DHT22;25866;52.420;10.640;2023-04-07T00:29:36;5.50;97.70
40151;DHT22;25866;52.420;10.640;2023-04-07T00:32:01;5.50;97.90
40151;DHT22;25866;52.420;10.640;2023-04-07T00:34:27;5.50;97.60
40151;DHT22;25866;52.420;10.640;2023-04-07T00:36:53;5.50;97.70
40151;DHT22;25866;52.420;10.640;2023-04-07T00:39:19;5.40;97.70
40151;DHT22;25866;52.420;10.640;2023-04-07T00:41:46;5.50;97.60
40151;DHT22;25866;52.420;10.640;2023-04-07T00:44:12;5.50;97.60
40151;DHT22;25866;52.420;10.640;2023-04-07T00:46:38;5.40;97.40
40151;DHT22;25866;52.420;10.640;2023-04-07T00:49:05;5.40;97.50
40151;DHT22;25866;52.420;10.640;2023-04-07T00:51:31;5.40;97.70
40151;DHT22;25866;52.420;10.640;2023-04-07T00:53:58;5.30;97.60
40151;DHT22;25866;52.420;10.640;2023-04-07T00:56:24;5.30;97.40
40151;DHT22;25866;52.420;10.640;2023-04-07T00:58:50;5.30;97.80
40151;DHT22;25866;52.420;10.640;2023-04-07T01:01:26;5.30;97.60
40151;DHT22;25866;52.420;10.640;2023-04-07T01:04:06;5.20;97.60
40151;DHT22;25866;52.420;10.640;2023-04-07T01:06:36;5.20;97.60
40151;DHT22;25866;52.420;10.640;2023-04-07T01:09:26;5.20;97.60
40151;DHT22;25866;52.420;10.640;2023-04-07T01:14:50;5.20;97.40
40151;DHT22;25866;52.420;10.640;2023-04-07T01:17:19;5.20;97.00
40151;DHT22;25866;52.420;10.640;2023-04-07T01:19:57;5.20;97.20
40151;DHT22;25866;52.420;10.640;2023-04-07T01:22:28;5.20;97.10
40151;DHT22;25866;52.420;10.640;2023-04-07T01:25:09;5.20;96.90
40151;DHT22;25866;52.420;10.640;2023-04-07T01:28:06;5.20;97.00
40151;DHT22;25866;52.420;10.640;2023-04-07T01:30:38;5.20;97.30
40151;DHT22;25866;52.420;10.640;2023-04-07T01:33:06;5.10;97.40
40151;DHT22;25866;52.420;10.640;2023-04-07T01:35:34;5.10;97.50
40151;DHT22;25866;52.420;10.640;2023-04-07T01:38:02;5.00;97.70
40151;DHT22;25866;52.420;10.640;2023-04-07T01:40:29;4.90;97.80
40151;DHT22;25866;52.420;10.640;2023-04-07T01:42:56;4.90;98.30
40151;DHT22;25866;52.420;10.640;2023-04-07T01:45:22;4.80;98.50
40151;DHT22;25866;52.420;10.640;2023-04-07T01:47:49;4.70;98.70
40151;DHT22;25866;52.420;10.640;2023-04-07T01:50:16;4.70;99.10
40151;DHT22;25866;52.420;10.640;2023-04-07T01:52:42;4.60;99.50
40151;DHT22;25866;52.420;10.640;2023-04-07T01:55:08;4.50;99.20
40151;DHT22;25866;52.420;10.640;2023-04-07T01:57:34;4.50;99.30
40151;DHT22;25866;52.420;10.640;2023-04-07T02:00:00;4.50;99.60
40151;DHT22;25866;52.420;10.640;2023-04-07T02:02:27;4.50;99.40
40151;DHT22;25866;52.420;10.640;2023-04-07T02:05:04;4.50;99.50
40151;DHT22;25866;52.420;10.640;2023-04-07T02:07:38;4.50;99.50
40151;DHT22;25866;52.420;10.640;2023-04-07T02:10:09;4.40;99.50
40151;DHT22;25866;52.420;10.640;2023-04-07T02:12:37;4.40;99.60
40151;DHT22;25866;52.420;10.640;2023-04-07T02:15:07;4.30;99.50
40151;DHT22;25866;52.420;10.640;2023-04-07T02:17:35;4.30;99.80
40151;DHT22;25866;52.420;10.640;2023-04-07T02:20:03;4.30;99.80
40151;DHT22;25866;52.420;10.640;2023-04-07T02:22:31;4.30;99.70
40151;DHT22;25866;52.420;10.640;2023-04-07T02:24:57;4.20;99.90
40151;DHT22;25866;52.420;10.640;2023-04-07T02:27:23;4.20;99.90
40151;DHT22;25866;52.420;10.640;2023-04-07T02:29:48;4.10;99.90
40151;DHT22;25866;52.420;10.640;2023-04-07T02:32:14;4.10;99.90
40151;DHT22;25866;52.420;10.640;2023-04-07T02:34:42;3.90;99.90
40151;DHT22;25866;52.420;10.640;2023-04-07T02:37:07;3.90;99.90
40151;DHT22;25866;52.420;10.640;2023-04-07T02:39:33;3.70;99.90
40151;DHT22;25866;52.420;10.640;2023-04-07T02:41:59;3.60;99.90
40151;DHT22;25866;52.420;10.640;2023-04-07T02:44:24;3.50;99.90
40151;DHT22;25866;52.420;10.640;2023-04-07T02:46:50;3.50;99.90
40151;DHT22;25866;52.420;10.640;2023-04-07T02:49:16;3.50;99.90
40151;DHT22;25866;52.420;10.640;2023-04-07T02:51:42;3.60;99.90
40151;DHT22;25866;52.420;10.640;2023-04-07T02:54:07;3.70;99.90
40151;DHT22;25866;52.420;10.640;2023-04-07T02:56:33;3.70;99.90
40151;DHT22;25866;52.420;10.640;2023-04-07T02:58:59;3.60;99.90
40151;DHT22;25866;52.420;10.640;2023-04-07T03:01:24;3.60;99.90
40151;DHT22;25866;52.420;10.640;2023-04-07T03:03:50;3.50;99.90
40151;DHT22;25866;52.420;10.640;2023-04-07T03:06:16;3.50;99.90
40151;DHT22;25866;52.420;10.640;2023-04-07T03:08:41;3.40;99.90
40151;DHT22;25866;52.420;10.640;2023-04-07T03:11:07;3.30;99.90
40151;DHT22;25866;52.420;10.640;2023-04-07T03:13:33;3.20;99.90
40151;DHT22;25866;52.420;10.640;2023-04-07T03:15:58;3.20;99.90
40151;DHT22;25866;52.420;10.640;2023-04-07T03:18:24;3.20;99.90
40151;DHT22;25866;52.420;10.640;2023-04-07T03:20:50;3.20;99.90
40151;DHT22;25866;52.420;10.640;2023-04-07T03:23:17;3.20;99.90
40151;DHT22;25866;52.420;10.640;2023-04-07T03:25:43;3.20;99.90
40151;DHT22;25866;52.420;10.640;2023-04-07T03:28:09;3.20;99.90
40151;DHT22;25866;52.420;10.640;2023-04-07T03:30:35;3.30;99.90
40151;DHT22;25866;52.420;10.640;2023-04-07T03:33:01;3.20;99.90
40151;DHT22;25866;52.420;10.640;2023-04-07T03:35:27;3.30;99.90
40151;DHT22;25866;52.420;10.640;2023-04-07T03:37:52;3.20;99.90
40151;DHT22;25866;52.420;10.640;2023-04-07T03:40:18;3.20;99.90
40151;DHT22;25866;52.420;10.640;2023-04-07T03:42:44;3.10;99.90
40151;DHT22;25866;52.420;10.640;2023-04-07T03:45:11;3.10;99.90
40151;DHT22;25866;52.420;10.640;2023-04-07T03:47:36;3.10;99.90
40151;DHT22;25866;52.420;10.640;2023-04-07T03:50:02;3.10;99.90
40151;DHT22;25866;52.420;10.640;2023-04-07T03:52:28;3.00;99.90
40151;DHT22;25866;52.420;10.640;2023-04-07T03:54:53;3.00;99.90
40151;DHT22;25866;52.420;10.640;2023-04-07T03:57:19;3.00;99.90
40151;DHT22;25866;52.420;10.640;2023-04-07T03:59:45;3.00;99.90
40151;DHT22;25866;52.420;10.640;2023-04-07T04:02:12;3.00;99.90
40151;DHT22;25866;52.420;10.640;2023-04-07T04:04:38;3.00;99.90
40151;DHT22;25866;52.420;10.640;2023-04-07T04:07:04;3.00;99.90
40151;DHT22;25866;52.420;10.640;2023-04-07T04:09:29;2.90;99.90
40151;DHT22;25866;52.420;10.640;2023-04-07T04:11:55;2.90;99.90
40151;DHT22;25866;52.420;10.640;2023-04-07T04:14:21;2.80;99.90
40151;DHT22;25866;52.420;10.640;2023-04-07T04:16:47;2.70;99.90
40151;DHT22;25866;52.420;10.640;2023-04-07T04:19:12;2.70;99.90
40151;DHT22;25866;52.420;10.640;2023-04-07T04:21:38;2.80;99.90
40151;DHT22;25866;52.420;10.640;2023-04-07T04:24:04;2.70;99.90
40151;DHT22;25866;52.420;10.640;2023-04-07T04:26:29;2.70;99.90
40151;DHT22;25866;52.420;10.640;2023-04-07T04:28:55;2.70;99.90
40151;DHT22;25866;52.420;10.640;2023-04-07T04:31:21;2.70;99.90
40151;DHT22;25866;52.420;10.640;2023-04-07T04:33:47;2.60;99.90
40151;DHT22;25866;52.420;10.640;2023-04-07T04:36:12;2.60;99.90
40151;DHT22;25866;52.420;10.640;2023-04-07T04:38:38;2.60;99.90
40151;DHT22;25866;52.420;10.640;2023-04-07T04:41:04;2.60;99.90
40151;DHT22;25866;52.420;10.640;2023-04-07T04:43:29;2.60;99.90
40151;DHT22;25866;52.420;10.640;2023-04-07T04:45:56;2.50;99.90
40151;DHT22;25866;52.420;10.640;2023-04-07T04:48:22;2.60;99.90
40151;DHT22;25866;52.420;10.640;2023-04-07T04:50:47;2.60;99.90
40151;DHT22;25866;52.420;10.640;2023-04-07T04:53:13;2.60;99.90
40151;DHT22;25866;52.420;10.640;2023-04-07T04:55:38;2.50;99.90
40151;DHT22;25866;52.420;10.640;2023-04-07T04:58:05;2.40;99.90
40151;DHT22;25866;52.420;10.640;2023-04-07T05:00:31;2.40;99.90
40151;DHT22;25866;52.420;10.640;2023-04-07T05:02:56;2.40;99.90
40151;DHT22;25866;52.420;10.640;2023-04-07T05:05:22;2.40;99.90
40151;DHT22;25866;52.420;10.640;2023-04-07T05:07:47;2.40;99.90
40151;DHT22;25866;52.420;10.640;2023-04-07T05:10:13;2.40;99.90
40151;DHT22;25866;52.420;10.640;2023-04-07T05:12:39;2.40;99.90
40151;DHT22;25866;52.420;10.640;2023-04-07T05:15:05;2.40;99.90
40151;DHT22;25866;52.420;10.640;2023-04-07T05:17:31;2.40;99.90
40151;DHT22;25866;52.420;10.640;2023-04-07T05:19:56;2.40;99.90
40151;DHT22;25866;52.420;10.640;2023-04-07T05:22:22;2.50;99.90
40151;DHT22;25866;52.420;10.640;2023-04-07T05:24:48;2.60;99.90
40151;DHT22;25866;52.420;10.640;2023-04-07T05:27:14;2.60;99.90
40151;DHT22;25866;52.420;10.640;2023-04-07T05:29:39;2.70;99.90
40151;DHT22;25866;52.420;10.640;2023-04-07T05:32:05;2.70;99.90
40151;DHT22;25866;52.420;10.640;2023-04-07T05:34:31;2.80;99.90
40151;DHT22;25866;52.420;10.640;2023-04-07T05:36:57;2.90;99.90
40151;DHT22;25866;52.420;10.640;2023-04-07T05:39:22;3.00;99.90
40151;DHT22;25866;52.420;10.640;2023-04-07T05:41:48;3.10;99.90
40151;DHT22;25866;52.420;10.640;2023-04-07T05:44:14;3.10;99.90
40151;DHT22;25866;52.420;10.640;2023-04-07T05:46:40;3.20;99.90
40151;DHT22;25866;52.420;10.640;2023-04-07T05:49:05;3.30;99.90
40151;DHT22;25866;52.420;10.640;2023-04-07T05:51:32;3.30;99.90
40151;DHT22;25866;52.420;10.640;2023-04-07T05:54:00;3.30;99.90
40151;DHT22;25866;52.420;10.640;2023-04-07T05:56:28;3.40;99.90
40151;DHT22;25866;52.420;10.640;2023-04-07T05:58:53;3.40;99.90
40151;DHT22;25866;52.420;10.640;2023-04-07T06:01:19;3.50;99.90
40151;DHT22;25866;52.420;10.640;2023-04-07T06:03:45;3.60;99.90
40151;DHT22;25866;52.420;10.640;2023-04-07T06:06:11;3.60;99.90
40151;DHT22;25866;52.420;10.640;2023-04-07T06:08:36;3.60;99.90
40151;DHT22;25866;52.420;10.640;2023-04-07T06:11:02;3.80;99.90
40151;DHT22;25866;52.420;10.640;2023-04-07T06:13:28;3.90;99.90
40151;DHT22;25866;52.420;10.640;2023-04-07T06:15:54;4.00;99.90
40151;DHT22;25866;52.420;10.640;2023-04-07T06:18:21;4.10;99.90
40151;DHT22;25866;52.420;10.640;2023-04-07T06:20:47;4.20;99.90
40151;DHT22;25866;52.420;10.640;2023-04-07T06:23:12;4.30;99.90
40151;DHT22;25866;52.420;10.640;2023-04-07T06:25:38;4.50;99.90
40151;DHT22;25866;52.420;10.640;2023-04-07T06:28:04;4.50;99.90
40151;DHT22;25866;52.420;10.640;2023-04-07T06:30:30;4.60;99.90
40151;DHT22;25866;52.420;10.640;2023-04-07T06:32:56;4.70;99.90
40151;DHT22;25866;52.420;10.640;2023-04-07T06:35:22;4.90;99.90
40151;DHT22;25866;52.420;10.640;2023-04-07T06:37:47;5.00;99.90
40151;DHT22;25866;52.420;10.640;2023-04-07T06:40:13;5.10;99.90
40151;DHT22;25866;52.420;10.640;2023-04-07T06:42:39;5.20;99.90
40151;DHT22;25866;52.420;10.640;2023-04-07T06:45:05;5.30;99.90
40151;DHT22;25866;52.420;10.640;2023-04-07T06:47:31;5.40;99.90
40151;DHT22;25866;52.420;10.640;2023-04-07T06:49:56;5.50;99.90
40151;DHT22;25866;52.420;10.640;2023-04-07T06:52:22;5.50;99.70
40151;DHT22;25866;52.420;10.640;2023-04-07T06:54:48;5.50;99.50
40151;DHT22;25866;52.420;10.640;2023-04-07T06:57:13;5.50;99.40
40151;DHT22;25866;52.420;10.640;2023-04-07T06:59:39;5.60;99.50
40151;DHT22;25866;52.420;10.640;2023-04-07T07:02:05;5.70;99.80
40151;DHT22;25866;52.420;10.640;2023-04-07T07:04:32;5.80;99.90
40151;DHT22;25866;52.420;10.640;2023-04-07T07:06:58;6.00;99.60
40151;DHT22;25866;52.420;10.640;2023-04-07T07:09:24;6.10;99.30
40151;DHT22;25866;52.420;10.640;2023-04-07T07:11:51;6.20;98.70
40151;DHT22;25866;52.420;10.640;2023-04-07T07:14:16;6.20;99.50
40151;DHT22;25866;52.420;10.640;2023-04-07T07:16:42;6.40;98.50
40151;DHT22;25866;52.420;10.640;2023-04-07T07:19:08;6.60;97.30
40151;DHT22;25866;52.420;10.640;2023-04-07T07:21:34;6.70;97.60
40151;DHT22;25866;52.420;10.640;2023-04-07T07:24:00;6.80;96.80
40151;DHT22;25866;52.420;10.640;2023-04-07T07:26:26;6.90;96.60
40151;DHT22;25866;52.420;10.640;2023-04-07T07:28:51;7.00;96.20
40151;DHT22;25866;52.420;10.640;2023-04-07T07:31:17;7.10;95.90
40151;DHT22;25866;52.420;10.640;2023-04-07T07:33:43;7.20;95.80
40151;DHT22;25866;52.420;10.640;2023-04-07T07:36:10;7.30;95.80
40151;DHT22;25866;52.420;10.640;2023-04-07T07:38:36;7.40;95.50
40151;DHT22;25866;52.420;10.640;2023-04-07T07:41:02;7.40;95.40
40151;DHT22;25866;52.420;10.640;2023-04-07T07:43:28;7.50;95.60
40151;DHT22;25866;52.420;10.640;2023-04-07T07:45:54;7.60;94.80
40151;DHT22;25866;52.420;10.640;2023-04-07T07:48:20;7.70;94.50
40151;DHT22;25866;52.420;10.640;2023-04-07T07:50:45;7.70;94.90
40151;DHT22;25866;52.420;10.640;2023-04-07T07:53:12;7.70;94.50
40151;DHT22;25866;52.420;10.640;2023-04-07T07:55:37;7.70;93.30
40151;DHT22;25866;52.420;10.640;2023-04-07T07:58:03;7.80;94.60
40151;DHT22;25866;52.420;10.640;2023-04-07T08:00:29;7.80;93.70
40151;DHT22;25866;52.420;10.640;2023-04-07T08:02:55;7.80;94.20
40151;DHT22;25866;52.420;10.640;2023-04-07T08:05:20;7.80;93.20
40151;DHT22;25866;52.420;10.640;2023-04-07T08:07:46;7.90;94.10
40151;DHT22;25866;52.420;10.640;2023-04-07T08:10:13;7.90;93.40
40151;DHT22;25866;52.420;10.640;2023-04-07T08:12:39;8.00;93.80
40151;DHT22;25866;52.420;10.640;2023-04-07T08:15:06;8.10;94.40
40151;DHT22;25866;52.420;10.640;2023-04-07T08:17:34;8.20;93.10
40151;DHT22;25866;52.420;10.640;2023-04-07T08:20:00;8.30;93.20
40151;DHT22;25866;52.420;10.640;2023-04-07T08:22:26;8.30;92.70
40151;DHT22;25866;52.420;10.640;2023-04-07T08:24:52;8.30;93.00
40151;DHT22;25866;52.420;10.640;2023-04-07T08:27:17;8.30;93.10
40151;DHT22;25866;52.420;10.640;2023-04-07T08:29:43;8.30;92.80
40151;DHT22;25866;52.420;10.640;2023-04-07T08:32:09;8.10;92.70
40151;DHT22;25866;52.420;10.640;2023-04-07T08:34:35;8.20;93.00
40151;DHT22;25866;52.420;10.640;2023-04-07T08:37:01;8.30;93.60
40151;DHT22;25866;52.420;10.640;2023-04-07T08:39:27;8.50;93.00
40151;DHT22;25866;52.420;10.640;2023-04-07T08:41:54;8.80;91.70
40151;DHT22;25866;52.420;10.640;2023-04-07T08:44:22;8.90;93.20
40151;DHT22;25866;52.420;10.640;2023-04-07T08:46:50;9.10;93.40
40151;DHT22;25866;52.420;10.640;2023-04-07T08:49:19;9.40;92.80
40151;DHT22;25866;52.420;10.640;2023-04-07T08:51:46;9.30;91.20
40151;DHT22;25866;52.420;10.640;2023-04-07T08:54:14;9.30;90.70
40151;DHT22;25866;52.420;10.640;2023-04-07T08:56:41;9.30;91.80
40151;DHT22;25866;52.420;10.640;2023-04-07T08:59:11;9.50;90.90
40151;DHT22;25866;52.420;10.640;2023-04-07T09:01:38;9.70;91.00
40151;DHT22;25866;52.420;10.640;2023-04-07T09:04:05;9.70;90.60
40151;DHT22;25866;52.420;10.640;2023-04-07T09:06:32;9.70;90.40
40151;DHT22;25866;52.420;10.640;2023-04-07T09:08:59;9.60;87.70
40151;DHT22;25866;52.420;10.640;2023-04-07T09:11:26;9.90;90.70
40151;DHT22;25866;52.420;10.640;2023-04-07T09:13:52;10.00;88.90
40151;DHT22;25866;52.420;10.640;2023-04-07T09:16:19;10.00;90.20
40151;DHT22;25866;52.420;10.640;2023-04-07T09:18:45;10.10;89.00
40151;DHT22;25866;52.420;10.640;2023-04-07T09:21:11;10.00;87.40
40151;DHT22;25866;52.420;10.640;2023-04-07T09:23:38;10.00;89.20
40151;DHT22;25866;52.420;10.640;2023-04-07T09:26:34;10.10;87.50
40151;DHT22;25866;52.420;10.640;2023-04-07T09:29:00;10.20;89.50
40151;DHT22;25866;52.420;10.640;2023-04-07T09:31:48;10.30;87.60
40151;DHT22;25866;52.420;10.640;2023-04-07T09:34:25;10.30;88.90
40151;DHT22;25866;52.420;10.640;2023-04-07T09:36:51;10.40;87.40
40151;DHT22;25866;52.420;10.640;2023-04-07T09:39:16;10.40;88.50
40151;DHT22;25866;52.420;10.640;2023-04-07T09:41:42;10.60;87.80
40151;DHT22;25866;52.420;10.640;2023-04-07T09:44:09;10.60;85.10
40151;DHT22;25866;52.420;10.640;2023-04-07T09:46:47;10.70;87.20
40151;DHT22;25866;52.420;10.640;2023-04-07T09:49:13;10.90;87.90
40151;DHT22;25866;52.420;10.640;2023-04-07T09:51:58;11.00;85.20
40151;DHT22;25866;52.420;10.640;2023-04-07T09:54:36;11.10;83.10
40151;DHT22;25866;52.420;10.640;2023-04-07T09:57:04;11.00;80.20
40151;DHT22;25866;52.420;10.640;2023-04-07T09:59:32;11.00;81.90
40151;DHT22;25866;52.420;10.640;2023-04-07T10:01:59;11.00;81.60
40151;DHT22;25866;52.420;10.640;2023-04-07T10:04:25;11.00;81.60
40151;DHT22;25866;52.420;10.640;2023-04-07T10:06:56;11.00;81.00
40151;DHT22;25866;52.420;10.640;2023-04-07T10:09:23;11.30;83.50
40151;DHT22;25866;52.420;10.640;2023-04-07T10:11:50;11.30;81.70
40151;DHT22;25866;52.420;10.640;2023-04-07T10:14:18;11.40;82.40
40151;DHT22;25866;52.420;10.640;2023-04-07T10:16:48;11.50;81.00
40151;DHT22;25866;52.420;10.640;2023-04-07T10:19:16;11.60;82.70
40151;DHT22;25866;52.420;10.640;2023-04-07T10:21:43;11.70;80.00
40151;DHT22;25866;52.420;10.640;2023-04-07T10:27:03;11.50;79.10
40151;DHT22;25866;52.420;10.640;2023-04-07T10:29:34;11.60;80.70
40151;DHT22;25866;52.420;10.640;2023-04-07T10:32:01;11.70;80.00
40151;DHT22;25866;52.420;10.640;2023-04-07T10:37:16;11.80;80.70
40151;DHT22;25866;52.420;10.640;2023-04-07T10:39:45;11.60;76.70
40151;DHT22;25866;52.420;10.640;2023-04-07T10:45:02;11.90;79.50
40151;DHT22;25866;52.420;10.640;2023-04-07T10:47:29;12.00;79.80
40151;DHT22;25866;52.420;10.640;2023-04-07T10:50:22;12.00;79.00
40151;DHT22;25866;52.420;10.640;2023-04-07T10:53:01;12.00;78.20
40151;DHT22;25866;52.420;10.640;2023-04-07T10:55:44;12.10;76.90
40151;DHT22;25866;52.420;10.640;2023-04-07T10:58:30;12.10;75.00
40151;DHT22;25866;52.420;10.640;2023-04-07T11:03:33;12.20;75.90
40151;DHT22;25866;52.420;10.640;2023-04-07T11:06:07;12.20;75.10
40151;DHT22;25866;52.420;10.640;2023-04-07T11:10:58;12.20;75.40
40151;DHT22;25866;52.420;10.640;2023-04-07T11:13:26;12.30;76.40
40151;DHT22;25866;52.420;10.640;2023-04-07T11:15:52;12.40;75.10
40151;DHT22;25866;52.420;10.640;2023-04-07T11:18:19;12.50;75.50
40151;DHT22;25866;52.420;10.640;2023-04-07T11:20:55;12.50;73.40
40151;DHT22;25866;52.420;10.640;2023-04-07T11:23:23;12.70;76.90
40151;DHT22;25866;52.420;10.640;2023-04-07T11:25:51;12.80;75.50
40151;DHT22;25866;52.420;10.640;2023-04-07T11:28:18;12.60;74.50
40151;DHT22;25866;52.420;10.640;2023-04-07T11:30:45;12.40;72.70
40151;DHT22;25866;52.420;10.640;2023-04-07T11:33:22;12.40;75.30
40151;DHT22;25866;52.420;10.640;2023-04-07T11:35:53;12.50;74.70
40151;DHT22;25866;52.420;10.640;2023-04-07T11:38:21;12.60;75.30
40151;DHT22;25866;52.420;10.640;2023-04-07T11:40:47;12.30;72.80
40151;DHT22;25866;52.420;10.640;2023-04-07T11:43:20;12.20;74.40
40151;DHT22;25866;52.420;10.640;2023-04-07T11:46:02;12.40;76.90
40151;DHT22;25866;52.420;10.640;2023-04-07T11:48:29;12.50;73.30
40151;DHT22;25866;52.420;10.640;2023-04-07T11:50:55;12.50;74.10
40151;DHT22;25866;52.420;10.640;2023-04-07T11:53:28;12.60;75.60
40151;DHT22;25866;52.420;10.640;2023-04-07T11:56:09;12.60;73.70
40151;DHT22;25866;52.420;10.640;2023-04-07T11:58:36;12.70;74.60
40151;DHT22;25866;52.420;10.640;2023-04-07T12:01:04;12.70;73.80
40151;DHT22;25866;52.420;10.640;2023-04-07T12:03:35;12.70;74.20
40151;DHT22;25866;52.420;10.640;2023-04-07T12:06:02;12.90;72.90
40151;DHT22;25866;52.420;10.640;2023-04-07T12:08:38;12.90;71.90
40151;DHT22;25866;52.420;10.640;2023-04-07T12:11:05;13.10;73.50
40151;DHT22;25866;52.420;10.640;2023-04-07T12:13:31;13.10;73.50
40151;DHT22;25866;52.420;10.640;2023-04-07T12:16:00;13.30;73.90
40151;DHT22;25866;52.420;10.640;2023-04-07T12:18:26;13.20;74.20
40151;DHT22;25866;52.420;10.640;2023-04-07T12:20:52;13.30;71.80
40151;DHT22;25866;52.420;10.640;2023-04-07T12:23:18;13.30;73.30
40151;DHT22;25866;52.420;10.640;2023-04-07T12:25:44;13.20;72.90
40151;DHT22;25866;52.420;10.640;2023-04-07T12:28:10;13.10;73.30
40151;DHT22;25866;52.420;10.640;2023-04-07T12:30:35;13.10;72.30
40151;DHT22;25866;52.420;10.640;2023-04-07T12:33:01;13.20;73.10
40151;DHT22;25866;52.420;10.640;2023-04-07T12:35:28;13.20;72.30
40151;DHT22;25866;52.420;10.640;2023-04-07T12:37:55;13.30;73.10
40151;DHT22;25866;52.420;10.640;2023-04-07T12:40:22;13.50;73.50
40151;DHT22;25866;52.420;10.640;2023-04-07T12:42:47;13.30;72.50
40151;DHT22;25866;52.420;10.640;2023-04-07T12:45:13;13.10;72.10
40151;DHT22;25866;52.420;10.640;2023-04-07T12:47:39;13.20;72.90
40151;DHT22;25866;52.420;10.640;2023-04-07T12:50:05;13.00;72.30
40151;DHT22;25866;52.420;10.640;2023-04-07T12:52:31;13.20;75.30
40151;DHT22;25866;52.420;10.640;2023-04-07T12:54:57;13.40;72.30
40151;DHT22;25866;52.420;10.640;2023-04-07T12:57:23;13.50;72.70
40151;DHT22;25866;52.420;10.640;2023-04-07T12:59:49;13.50;71.70
40151;DHT22;25866;52.420;10.640;2023-04-07T13:02:14;13.70;71.60
40151;DHT22;25866;52.420;10.640;2023-04-07T13:04:42;13.50;71.50
40151;DHT22;25866;52.420;10.640;2023-04-07T13:07:14;13.70;72.60
40151;DHT22;25866;52.420;10.640;2023-04-07T13:09:40;13.40;72.20
40151;DHT22;25866;52.420;10.640;2023-04-07T13:12:10;13.50;72.70
40151;DHT22;25866;52.420;10.640;2023-04-07T13:14:40;13.50;72.90
40151;DHT22;25866;52.420;10.640;2023-04-07T13:17:07;13.50;71.50
40151;DHT22;25866;52.420;10.640;2023-04-07T13:19:33;13.60;71.90
40151;DHT22;25866;52.420;10.640;2023-04-07T13:21:59;13.70;71.40
40151;DHT22;25866;52.420;10.640;2023-04-07T13:24:25;13.70;72.20
40151;DHT22;25866;52.420;10.640;2023-04-07T13:26:52;13.80;71.70
40151;DHT22;25866;52.420;10.640;2023-04-07T13:29:18;13.90;70.40
40151;DHT22;25866;52.420;10.640;2023-04-07T13:31:45;13.90;71.00
40151;DHT22;25866;52.420;10.640;2023-04-07T13:34:11;13.70;70.70
40151;DHT22;25866;52.420;10.640;2023-04-07T13:36:36;13.70;72.30
40151;DHT22;25866;52.420;10.640;2023-04-07T13:39:02;13.80;73.50
40151;DHT22;25866;52.420;10.640;2023-04-07T13:41:28;13.60;70.90
40151;DHT22;25866;52.420;10.640;2023-04-07T13:43:54;13.60;71.10
40151;DHT22;25866;52.420;10.640;2023-04-07T13:46:19;13.70;72.20
40151;DHT22;25866;52.420;10.640;2023-04-07T13:48:45;13.70;73.30
40151;DHT22;25866;52.420;10.640;2023-04-07T13:51:11;13.60;74.50
40151;DHT22;25866;52.420;10.640;2023-04-07T13:53:37;13.90;73.30
40151;DHT22;25866;52.420;10.640;2023-04-07T13:56:03;13.90;72.90
40151;DHT22;25866;52.420;10.640;2023-04-07T13:58:30;14.00;70.80
40151;DHT22;25866;52.420;10.640;2023-04-07T14:00:56;13.80;73.10
40151;DHT22;25866;52.420;10.640;2023-04-07T14:03:21;13.50;72.30
40151;DHT22;25866;52.420;10.640;2023-04-07T14:05:47;13.30;71.50
40151;DHT22;25866;52.420;10.640;2023-04-07T14:08:13;13.20;71.50
40151;DHT22;25866;52.420;10.640;2023-04-07T14:10:39;13.10;70.40
40151;DHT22;25866;52.420;10.640;2023-04-07T14:13:05;13.20;71.80
40151;DHT22;25866;52.420;10.640;2023-04-07T14:15:31;13.40;72.20
40151;DHT22;25866;52.420;10.640;2023-04-07T14:17:58;13.40;71.90
40151;DHT22;25866;52.420;10.640;2023-04-07T14:20:25;13.30;71.50
40151;DHT22;25866;52.420;10.640;2023-04-07T14:22:51;13.30;70.20
40151;DHT22;25866;52.420;10.640;2023-04-07T14:25:17;13.40;71.70
40151;DHT22;25866;52.420;10.640;2023-04-07T14:27:43;13.70;72.50
40151;DHT22;25866;52.420;10.640;2023-04-07T14:30:09;13.60;70.90
40151;DHT22;25866;52.420;10.640;2023-04-07T14:32:35;13.50;70.70
40151;DHT22;25866;52.420;10.640;2023-04-07T14:35:01;13.40;72.30
40151;DHT22;25866;52.420;10.640;2023-04-07T14:37:27;13.60;73.90
40151;DHT22;25866;52.420;10.640;2023-04-07T14:39:53;13.80;72.60
40151;DHT22;25866;52.420;10.640;2023-04-07T14:42:22;13.80;70.40
40151;DHT22;25866;52.420;10.640;2023-04-07T14:44:48;13.50;70.70
40151;DHT22;25866;52.420;10.640;2023-04-07T14:47:14;13.10;70.30
40151;DHT22;25866;52.420;10.640;2023-04-07T14:49:40;13.00;71.50
40151;DHT22;25866;52.420;10.640;2023-04-07T14:52:05;12.90;73.70
40151;DHT22;25866;52.420;10.640;2023-04-07T14:54:31;12.70;72.80
40151;DHT22;25866;52.420;10.640;2023-04-07T14:56:57;12.60;71.30
40151;DHT22;25866;52.420;10.640;2023-04-07T14:59:23;12.50;71.80
40151;DHT22;25866;52.420;10.640;2023-04-07T15:01:49;12.50;73.00
40151;DHT22;25866;52.420;10.640;2023-04-07T15:04:15;12.40;73.80
40151;DHT22;25866;52.420;10.640;2023-04-07T15:06:41;12.30;72.60
40151;DHT22;25866;52.420;10.640;2023-04-07T15:09:07;12.30;75.90
40151;DHT22;25866;52.420;10.640;2023-04-07T15:11:33;12.30;73.90
40151;DHT22;25866;52.420;10.640;2023-04-07T15:13:59;12.40;74.60
40151;DHT22;25866;52.420;10.640;2023-04-07T15:16:25;12.50;74.30
40151;DHT22;25866;52.420;10.640;2023-04-07T15:18:51;12.50;75.30
40151;DHT22;25866;52.420;10.640;2023-04-07T15:21:17;12.50;75.20
40151;DHT22;25866;52.420;10.640;2023-04-07T15:23:44;12.40;76.10
40151;DHT22;25866;52.420;10.640;2023-04-07T15:26:11;12.40;77.70
40151;DHT22;25866;52.420;10.640;2023-04-07T15:28:37;12.00;78.40
40151;DHT22;25866;52.420;10.640;2023-04-07T15:31:03;11.80;78.20
40151;DHT22;25866;52.420;10.640;2023-04-07T15:33:37;11.70;79.00
40151;DHT22;25866;52.420;10.640;2023-04-07T15:36:07;11.70;79.50
40151;DHT22;25866;52.420;10.640;2023-04-07T15:38:33;11.60;79.40
40151;DHT22;25866;52.420;10.640;2023-04-07T15:40:59;11.50;80.20